Duson, Louisiana
Current Conditions -  °F | °C
As of 6:53 PM on Friday 24 Oct 2014 (Local Time) from KLFT Reporting Station
Clear Clear  
Wind Chill: 66°   Ceiling: Unl
Heat Index: 66°   Visibility: 10mi
Dew Point: 48°   Wind: 3mph
Humidity: 52%   Direction: 30°NNE
Pressure: 30.09"   Gusts: NA
Location:  30.24°N, 92.19°W
Report Text: KLFT 242353Z 03003KT 10SM CLR 19/09 A3009 RMK AO2 SLP189 T01890089 10250 20189 53007
Loading
Personal Weather Stations






























Interactive Weather Map
Tropical Storm Tracking
New forecast layout! Learn more

10-Day Weather Forecast

Advertisements
Track Severe Weather on mobile